Orbital elements of COSMOS 2251 DEB
| Launched | 15 June 1993 |
| Flight ended | – |
| Launch site | Plesetsk Missile and Space Complex, Russia |
| Owner | Commonwealth of Independent States (former USSR) |
| NORAD ID | 34546 |
| Date fetched |
Epoch osculation |
Inc. [°] |
Ecc. | RA asc node [hr] |
Arg Peri. [°] |
Mean anom [°] |
Mean motion [rev/day] |
Abs. mag |
| Date fetched |
Epoch osculation |
Inc. [°] |
Ecc. | RA asc node [hr] |
Arg Peri. [°] |
Mean anom [°] |
Mean motion [rev/day] |
Abs. mag |
| 2026 May 03 17:57 | 2026 Apr 30 14:49:55 | 74.0312 | 0.00207 | 23.3393 | 35.2957 | 354.2054 | 14.46052 | – |
| 2026 May 02 17:57 | 2026 Apr 30 14:49:55 | 74.0312 | 0.00207 | 23.3393 | 35.2957 | 354.2054 | 14.46052 | – |
| 2026 May 01 17:56 | 2026 Apr 30 14:49:55 | 74.0312 | 0.00207 | 23.3393 | 35.2957 | 354.2054 | 14.46052 | – |
| 2026 Apr 30 17:56 | 2026 Apr 30 14:49:55 | 74.0312 | 0.00207 | 23.3393 | 35.2957 | 354.2054 | 14.46052 | – |
| 2026 Apr 29 17:57 | 2026 Apr 24 11:10:33 | 74.0320 | 0.00205 | 0.1049 | 48.2869 | 354.2054 | 14.46052 | – |
| 2026 Apr 28 17:56 | 2026 Apr 24 11:10:33 | 74.0320 | 0.00205 | 0.1049 | 48.2869 | 354.2054 | 14.46052 | – |
| 2026 Apr 27 17:58 | 2026 Apr 24 11:10:33 | 74.0320 | 0.00205 | 0.1049 | 48.2869 | 354.2054 | 14.46052 | – |
| 2026 Apr 26 17:58 | 2026 Apr 24 11:10:33 | 74.0320 | 0.00205 | 0.1049 | 48.2869 | 354.2054 | 14.46052 | – |
| 2026 Apr 25 17:58 | 2026 Apr 24 11:10:33 | 74.0320 | 0.00205 | 0.1049 | 48.2869 | 354.2054 | 14.46052 | – |
| 2026 Apr 24 17:59 | 2026 Apr 24 11:10:33 | 74.0320 | 0.00205 | 0.1049 | 48.2869 | 354.2054 | 14.46052 | – |
| 2026 Apr 23 17:57 | 2026 Apr 19 11:37:31 | 74.0322 | 0.00203 | 0.7246 | 58.9604 | 354.2054 | 14.46052 | – |
| 2026 Apr 22 17:57 | 2026 Apr 19 11:37:31 | 74.0322 | 0.00203 | 0.7246 | 58.9604 | 354.2054 | 14.46052 | – |
| 2026 Apr 21 17:57 | 2026 Apr 19 11:37:31 | 74.0322 | 0.00203 | 0.7246 | 58.9604 | 354.2054 | 14.46052 | – |
| 2026 Apr 20 17:57 | 2026 Apr 19 11:37:31 | 74.0322 | 0.00203 | 0.7246 | 58.9604 | 354.2054 | 14.46052 | – |
| 2026 Apr 19 17:58 | 2026 Apr 19 11:37:31 | 74.0322 | 0.00203 | 0.7246 | 58.9604 | 354.2054 | 14.46052 | – |
| 2026 Apr 18 17:56 | 2026 Apr 13 04:58:05 | 74.0322 | 0.00200 | 1.5056 | 72.5370 | 354.2054 | 14.46052 | – |
| 2026 Apr 16 17:57 | 2026 Apr 13 04:58:05 | 74.0322 | 0.00200 | 1.5056 | 72.5370 | 354.2054 | 14.46052 | – |
| 2026 Apr 14 17:57 | 2026 Apr 13 04:58:05 | 74.0322 | 0.00200 | 1.5056 | 72.5370 | 354.2054 | 14.46052 | – |
| 2026 Apr 13 17:57 | 2026 Apr 13 04:58:05 | 74.0322 | 0.00200 | 1.5056 | 72.5370 | 354.2054 | 14.46052 | – |
| 2026 Apr 12 17:57 | 2026 Apr 08 14:57:20 | 74.0326 | 0.00198 | 2.0759 | 82.6049 | 354.2054 | 14.46052 | – |
| 2026 Apr 11 17:57 | 2026 Apr 08 14:57:20 | 74.0326 | 0.00198 | 2.0759 | 82.6049 | 354.2054 | 14.46052 | – |
| 2026 Apr 10 17:58 | 2026 Apr 08 14:57:20 | 74.0326 | 0.00198 | 2.0759 | 82.6049 | 354.2054 | 14.46052 | – |
| 2026 Apr 09 18:01 | 2026 Apr 08 14:57:20 | 74.0326 | 0.00198 | 2.0759 | 82.6049 | 354.2054 | 14.46052 | – |
| 2026 Apr 08 17:57 | 2026 Apr 08 14:57:20 | 74.0326 | 0.00198 | 2.0759 | 82.6049 | 354.2054 | 14.46052 | – |
| 2026 Apr 07 17:57 | 2026 Apr 01 21:53:05 | 74.0318 | 0.00196 | 2.9109 | 97.4769 | 354.2054 | 14.46052 | – |
| 2026 Apr 06 17:57 | 2026 Apr 01 21:53:05 | 74.0318 | 0.00196 | 2.9109 | 97.4769 | 354.2054 | 14.46052 | – |